メインページ
METAR-TAF:

METAR-TAF

空港 :

St. Clair County International Airport

Port Huron, ミシガン州, アメリカ合衆国

緯度: 42-55N, 経度: 082-32W, 海抜: 198m

現時点の気象観測

当レポートは23分前の08:35(UTC)に作成
西の風 8kt、最大14ktの突風を伴う、西/南西から北西の間で変化する
気温 0°C
湿度 74%
気圧 1007 hPa
視程: 11.3km
高度1700ftの雲は散在している
高度2200ftの千切れ雲あり
高度3500ftの曇り

METAR: KPHN 150835Z AUTO 27008G14KT 240V310 7SM SCT017 BKN022 OVC035 00/M04 A2974 RMK AO2

時間: 03:58 (08:58 UTC)


TAF: 見つかりません

4,000以上の空港の気象観測と天気予報(METAR報とTAF報)

利用可能な観測所は地図上に黄色い丸と赤い丸で示す。

丸の上にカーソルを重ねると観測所名を参照できる。

次にクリックすると気象観測と天気予報を参照できる。

マップの切り替え:黒色「×」印の緑ボタンをクリックして拡大、「-」印の緑ボタンをクリックして縮小、緑色の三角印をクリックして隣りの地図に切り替え


METAR-TAF: